Cosmopolis, Washington
Current Conditions -  °F | °C
As of 12:53 PM on Tuesday 21 Oct 2014 (Local Time) from KHQM Reporting Station
Haze Haze  
Wind Chill: 61°   Ceiling: 2000
Heat Index: 61°   Visibility: 6mi
Dew Point: 56°   Wind: 13mph
Humidity: 83%   Direction: 160°SSE
Pressure: 29.89"   Gusts: NA
Location:  46.96°N, 123.77°W
Report Text: KHQM 211953Z AUTO 16011KT 6SM HZ BKN020 OVC027 16/13 A2989 RMK AO2 SLP125 T01610133
Loading
Personal Weather Stations






























Interactive Weather Map
Tropical Storm Tracking
New forecast layout! Learn more

10-Day Weather Forecast

Advertisements
Track Severe Weather on mobile